Time;durP1;ratioP1;P1;durP2;ratioP2;P2;SDS_P1;SDS_P2;PMS_P1;PMS_P2;Temp;Humidity;BMP_temperature;BMP_pressure;BME280_temperature;BME280_humidity;BME280_pressure;Samples;Min_cycle;Max_cycle;Signal;HPM_P1;HPM_P2
2023/10/27 00:01:34;;;;;;;2.10;1.00;;;;;;;;;;5011266;28;20315;-86
2023/10/27 00:03:59;;;;;;;2.50;1.00;;;;;;;;;;4995629;28;20280;-86
2023/10/27 00:06:24;;;;;;;2.53;1.00;;;;;;;;;;5012986;28;20488;-89
2023/10/27 00:08:49;;;;;;;2.10;1.00;;;;;;;;;;5015914;28;20631;-85
2023/10/27 00:11:15;;;;;;;2.43;1.10;;;;;;;;;;5000226;28;20279;-86
2023/10/27 00:13:40;;;;;;;1.93;1.00;;;;;;;;;;4992659;28;20295;-86
2023/10/27 00:16:09;;;;;;;3.10;1.00;;;;;;;;;;5015834;28;20334;-89
2023/10/27 00:18:34;;;;;;;3.47;1.15;;;;;;;;;;4997133;28;20380;-86
2023/10/27 00:20:59;;;;;;;4.27;1.20;;;;;;;;;;4980255;28;20065;-87
2023/10/27 00:23:24;;;;;;;3.60;1.00;;;;;;;;;;5019217;28;20276;-93
2023/10/27 00:25:50;;;;;;;2.33;1.30;;;;;;;;;;5034293;28;20043;-86
2023/10/27 00:28:15;;;;;;;1.73;1.05;;;;;;;;;;5024278;28;20303;-88
2023/10/27 00:30:40;;;;;;;2.60;1.20;;;;;;;;;;5033490;28;20034;-85
2023/10/27 00:33:05;;;;;;;1.90;0.93;;;;;;;;;;5018628;28;20069;-85
2023/10/27 00:35:31;;;;;;;2.50;0.90;;;;;;;;;;5027216;28;20054;-85
2023/10/27 00:37:57;;;;;;;2.53;1.00;;;;;;;;;;5022858;28;20045;-86
2023/10/27 00:40:23;;;;;;;2.72;0.98;;;;;;;;;;5033450;28;20284;-87
2023/10/27 00:42:48;;;;;;;2.00;1.00;;;;;;;;;;5022155;28;20080;-89
2023/10/27 00:45:13;;;;;;;2.58;0.90;;;;;;;;;;5011352;28;20283;-85
2023/10/27 00:47:38;;;;;;;2.08;1.05;;;;;;;;;;5012264;28;20072;-86
2023/10/27 00:50:04;;;;;;;2.30;1.10;;;;;;;;;;4992466;28;20116;-86
2023/10/27 00:52:29;;;;;;;3.28;0.98;;;;;;;;;;5006830;28;20292;-85
2023/10/27 00:54:54;;;;;;;2.03;0.80;;;;;;;;;;5014144;28;20364;-90
2023/10/27 00:57:20;;;;;;;1.80;1.00;;;;;;;;;;4992692;28;20285;-85
2023/10/27 00:59:46;;;;;;;2.53;1.00;;;;;;;;;;5011136;28;20053;-90
2023/10/27 01:02:11;;;;;;;2.08;1.00;;;;;;;;;;5021460;28;20037;-85
2023/10/27 01:04:37;;;;;;;2.72;1.20;;;;;;;;;;5014687;28;20052;-86
2023/10/27 01:07:02;;;;;;;3.45;1.02;;;;;;;;;;5014605;28;20110;-85
2023/10/27 01:09:27;;;;;;;2.40;0.90;;;;;;;;;;5013151;28;20049;-85
2023/10/27 01:11:53;;;;;;;2.40;1.23;;;;;;;;;;4995595;28;20040;-85
2023/10/27 01:14:18;;;;;;;3.03;1.33;;;;;;;;;;4999605;28;20288;-86
2023/10/27 01:16:43;;;;;;;1.75;1.10;;;;;;;;;;4994163;28;20026;-85
2023/10/27 01:19:09;;;;;;;2.83;1.20;;;;;;;;;;4991743;28;20547;-86
2023/10/27 01:21:34;;;;;;;2.13;1.00;;;;;;;;;;5009661;28;20333;-86
2023/10/27 01:23:59;;;;;;;2.43;1.03;;;;;;;;;;5009186;28;20096;-85
2023/10/27 01:26:26;;;;;;;2.00;1.00;;;;;;;;;;5015686;28;20307;-84
2023/10/27 01:28:51;;;;;;;2.80;0.90;;;;;;;;;;5014935;28;20033;-85
2023/10/27 01:31:16;;;;;;;2.17;0.83;;;;;;;;;;4999891;28;20344;-91
2023/10/27 01:33:41;;;;;;;3.47;0.90;;;;;;;;;;5000868;28;20287;-87
2023/10/27 01:36:07;;;;;;;2.40;0.80;;;;;;;;;;5028996;28;20033;-87
2023/10/27 01:38:32;;;;;;;2.25;1.00;;;;;;;;;;5004583;28;20363;-92
2023/10/27 01:40:57;;;;;;;3.40;1.20;;;;;;;;;;5038204;28;20056;-91
2023/10/27 01:43:23;;;;;;;1.97;0.83;;;;;;;;;;5021498;28;20352;-91
2023/10/27 01:45:48;;;;;;;2.77;1.20;;;;;;;;;;5017807;28;20119;-92
2023/10/27 01:48:13;;;;;;;2.87;1.00;;;;;;;;;;5020395;28;20285;-89
2023/10/27 01:50:38;;;;;;;2.22;1.00;;;;;;;;;;5037551;28;20045;-85
2023/10/27 01:53:04;;;;;;;2.33;0.90;;;;;;;;;;5028452;28;20108;-86
2023/10/27 01:55:29;;;;;;;2.63;1.03;;;;;;;;;;5018453;28;20309;-89
2023/10/27 01:57:54;;;;;;;1.97;1.10;;;;;;;;;;4998233;28;20286;-84
2023/10/27 02:00:19;;;;;;;2.50;0.95;;;;;;;;;;5034608;28;20653;-88
2023/10/27 02:02:46;;;;;;;2.85;0.98;;;;;;;;;;5000711;28;20042;-87
2023/10/27 02:05:12;;;;;;;1.80;1.10;;;;;;;;;;5022935;28;20079;-89
2023/10/27 02:07:37;;;;;;;2.07;0.97;;;;;;;;;;5019900;28;20037;-89
2023/10/27 02:10:02;;;;;;;2.33;0.90;;;;;;;;;;5014250;28;20306;-87
2023/10/27 02:12:27;;;;;;;3.17;1.30;;;;;;;;;;5029688;28;20315;-88
2023/10/27 02:14:53;;;;;;;2.37;0.90;;;;;;;;;;5020549;28;20042;-90
2023/10/27 02:17:18;;;;;;;2.17;0.97;;;;;;;;;;5020003;28;20602;-84
2023/10/27 02:19:43;;;;;;;2.27;1.03;;;;;;;;;;5026965;28;20302;-85
2023/10/27 02:22:08;;;;;;;2.83;0.90;;;;;;;;;;5037216;28;20096;-85
2023/10/27 02:24:34;;;;;;;3.53;1.37;;;;;;;;;;5019040;28;20038;-85
2023/10/27 02:26:59;;;;;;;1.40;0.90;;;;;;;;;;5017761;28;20296;-85
2023/10/27 02:29:25;;;;;;;2.10;1.00;;;;;;;;;;5020890;28;20065;-90
2023/10/27 02:31:50;;;;;;;2.20;1.10;;;;;;;;;;5039048;28;20489;-86
2023/10/27 02:34:15;;;;;;;2.97;1.20;;;;;;;;;;5023039;28;20116;-90
2023/10/27 02:36:41;;;;;;;1.93;1.03;;;;;;;;;;5018692;28;20054;-89
2023/10/27 02:39:06;;;;;;;3.00;1.10;;;;;;;;;;5000354;28;20316;-87
2023/10/27 02:41:31;;;;;;;1.80;1.00;;;;;;;;;;4998032;28;20050;-92
2023/10/27 02:43:57;;;;;;;3.07;1.20;;;;;;;;;;5018171;28;20064;-89
2023/10/27 02:46:22;;;;;;;2.78;1.13;;;;;;;;;;5017363;28;20628;-89
2023/10/27 02:48:48;;;;;;;2.13;1.00;;;;;;;;;;5034413;28;20163;-91
2023/10/27 02:51:14;;;;;;;2.83;0.93;;;;;;;;;;5044964;28;20287;-85
2023/10/27 02:53:39;;;;;;;1.80;1.00;;;;;;;;;;5008193;28;20069;-87
2023/10/27 02:56:05;;;;;;;3.20;1.10;;;;;;;;;;5024143;28;20038;-86
2023/10/27 02:58:31;;;;;;;3.10;1.33;;;;;;;;;;5017428;28;20285;-85
2023/10/27 03:00:56;;;;;;;2.22;0.90;;;;;;;;;;5012688;28;20045;-89
2023/10/27 03:03:21;;;;;;;1.67;0.80;;;;;;;;;;5013059;28;20077;-87
2023/10/27 03:05:46;;;;;;;2.63;0.93;;;;;;;;;;4995494;28;20292;-85
2023/10/27 03:08:12;;;;;;;2.43;1.20;;;;;;;;;;5022162;28;20288;-86
2023/10/27 03:10:37;;;;;;;2.72;1.20;;;;;;;;;;5011777;28;20695;-89
2023/10/27 03:13:08;;;;;;;2.63;1.10;;;;;;;;;;5011313;28;20104;-86
2023/10/27 03:15:33;;;;;;;2.00;1.00;;;;;;;;;;5011709;28;20033;-86
2023/10/27 03:17:58;;;;;;;2.47;0.90;;;;;;;;;;5013451;28;20041;-88
2023/10/27 03:20:23;;;;;;;2.83;1.30;;;;;;;;;;4997330;28;20504;-85
2023/10/27 03:22:49;;;;;;;3.00;1.47;;;;;;;;;;5013054;28;20289;-86
2023/10/27 03:25:14;;;;;;;1.73;0.87;;;;;;;;;;5013977;28;20014;-85
2023/10/27 03:27:39;;;;;;;1.92;0.93;;;;;;;;;;5016051;28;20041;-88
2023/10/27 03:30:05;;;;;;;2.55;1.08;;;;;;;;;;5014114;28;20021;-87
2023/10/27 03:32:30;;;;;;;1.73;0.93;;;;;;;;;;5018328;28;20037;-85
2023/10/27 03:34:55;;;;;;;1.65;0.82;;;;;;;;;;5014941;28;20030;-85
2023/10/27 03:37:21;;;;;;;2.13;1.10;;;;;;;;;;5009333;28;20539;-85
2023/10/27 03:39:46;;;;;;;2.08;1.15;;;;;;;;;;4991712;28;20273;-86
2023/10/27 03:42:11;;;;;;;1.93;1.30;;;;;;;;;;5007469;28;20532;-85
2023/10/27 03:44:38;;;;;;;2.95;1.02;;;;;;;;;;4991340;28;20329;-84
2023/10/27 03:47:04;;;;;;;3.33;1.20;;;;;;;;;;4991929;28;20037;-85
2023/10/27 03:49:32;;;;;;;3.10;1.23;;;;;;;;;;4990387;28;20030;-89
2023/10/27 03:51:59;;;;;;;3.90;1.27;;;;;;;;;;4992613;28;20643;-86
2023/10/27 03:54:24;;;;;;;1.90;1.10;;;;;;;;;;4990265;28;20195;-87
2023/10/27 03:56:49;;;;;;;2.10;1.10;;;;;;;;;;5009279;28;20037;-85
2023/10/27 03:59:16;;;;;;;4.00;1.13;;;;;;;;;;4989920;28;20284;-84
2023/10/27 04:01:41;;;;;;;3.05;1.20;;;;;;;;;;4991207;28;20301;-85
2023/10/27 04:04:07;;;;;;;1.85;0.80;;;;;;;;;;5009024;28;20049;-86
2023/10/27 04:06:32;;;;;;;2.75;1.02;;;;;;;;;;5008671;28;20042;-86
2023/10/27 04:08:58;;;;;;;2.43;1.00;;;;;;;;;;4992066;28;20128;-86
2023/10/27 04:11:23;;;;;;;1.95;1.00;;;;;;;;;;5009128;28;20957;-85
2023/10/27 04:13:48;;;;;;;2.70;1.10;;;;;;;;;;5008933;28;20046;-89
2023/10/27 04:16:14;;;;;;;4.33;0.83;;;;;;;;;;5011444;28;20471;-86
2023/10/27 04:18:39;;;;;;;3.20;1.30;;;;;;;;;;5010437;28;20476;-89
2023/10/27 04:21:04;;;;;;;2.07;0.90;;;;;;;;;;5010354;28;20335;-89
2023/10/27 04:23:30;;;;;;;1.83;0.80;;;;;;;;;;4993788;28;20295;-86
2023/10/27 04:25:55;;;;;;;2.20;1.30;;;;;;;;;;5011302;28;20044;-90
2023/10/27 04:28:21;;;;;;;2.80;1.37;;;;;;;;;;5010876;28;20057;-88
2023/10/27 04:30:46;;;;;;;2.00;1.00;;;;;;;;;;5008865;28;20392;-90
2023/10/27 04:33:11;;;;;;;1.90;0.90;;;;;;;;;;5010837;28;20189;-89
2023/10/27 04:35:36;;;;;;;2.47;1.00;;;;;;;;;;5010812;28;20340;-85
2023/10/27 04:38:03;;;;;;;2.13;1.08;;;;;;;;;;4992270;28;20285;-87
2023/10/27 04:40:30;;;;;;;1.90;1.23;;;;;;;;;;5009354;28;20116;-88
2023/10/27 04:42:58;;;;;;;2.80;1.23;;;;;;;;;;5009446;28;20496;-86
2023/10/27 04:45:23;;;;;;;2.33;1.08;;;;;;;;;;5009342;28;20077;-87
2023/10/27 04:47:48;;;;;;;3.70;1.10;;;;;;;;;;5009684;28;20034;-87
2023/10/27 04:50:13;;;;;;;2.90;1.17;;;;;;;;;;5010733;28;20029;-88
2023/10/27 04:52:39;;;;;;;2.15;1.00;;;;;;;;;;4992258;28;20335;-86
2023/10/27 04:55:05;;;;;;;2.58;1.05;;;;;;;;;;5010892;28;20120;-88
2023/10/27 04:57:31;;;;;;;2.88;1.20;;;;;;;;;;5010535;28;20105;-87
2023/10/27 04:59:57;;;;;;;3.22;1.10;;;;;;;;;;5011902;28;20044;-89
2023/10/27 05:02:22;;;;;;;3.33;1.10;;;;;;;;;;5010795;28;20050;-88
2023/10/27 05:04:47;;;;;;;2.08;1.10;;;;;;;;;;5011293;28;20292;-91
2023/10/27 05:07:13;;;;;;;2.80;1.00;;;;;;;;;;4994267;28;20441;-90
2023/10/27 05:09:38;;;;;;;2.35;1.10;;;;;;;;;;5012420;28;21142;-89
2023/10/27 05:12:03;;;;;;;2.47;1.17;;;;;;;;;;4994598;28;20096;-90
2023/10/27 05:14:29;;;;;;;3.75;0.82;;;;;;;;;;5013149;28;20398;-92
2023/10/27 05:16:54;;;;;;;2.03;0.85;;;;;;;;;;5010488;28;20042;-88
2023/10/27 05:19:20;;;;;;;2.80;1.10;;;;;;;;;;4993052;28;20030;-89
2023/10/27 05:21:45;;;;;;;2.27;1.13;;;;;;;;;;5009110;28;20046;-88
2023/10/27 05:24:11;;;;;;;3.93;1.10;;;;;;;;;;5015530;28;20347;-89
2023/10/27 05:26:36;;;;;;;4.82;1.00;;;;;;;;;;5012112;28;20288;-92
2023/10/27 05:29:01;;;;;;;2.17;1.10;;;;;;;;;;5008810;28;20034;-86
2023/10/27 05:31:27;;;;;;;2.30;1.25;;;;;;;;;;5006496;28;20034;-87
2023/10/27 05:33:52;;;;;;;3.15;1.10;;;;;;;;;;4986104;28;20080;-87
2023/10/27 05:36:17;;;;;;;4.13;1.13;;;;;;;;;;5005314;28;20027;-91
2023/10/27 05:38:42;;;;;;;3.20;1.37;;;;;;;;;;5002608;28;20291;-87
2023/10/27 05:41:08;;;;;;;2.95;1.30;;;;;;;;;;4974856;28;20643;-89
2023/10/27 05:43:33;;;;;;;3.00;1.27;;;;;;;;;;4987356;28;20117;-88
2023/10/27 05:45:58;;;;;;;2.78;1.40;;;;;;;;;;4990854;28;20334;-87
2023/10/27 05:48:24;;;;;;;4.00;1.73;;;;;;;;;;5007573;28;20455;-87
2023/10/27 05:50:49;;;;;;;3.05;1.25;;;;;;;;;;4990631;28;20095;-89
2023/10/27 05:53:15;;;;;;;3.15;1.23;;;;;;;;;;4988954;28;20541;-86
2023/10/27 05:55:40;;;;;;;4.07;1.40;;;;;;;;;;4988456;28;20041;-88
2023/10/27 05:58:05;;;;;;;3.75;1.70;;;;;;;;;;4974198;28;20038;-88
2023/10/27 06:00:31;;;;;;;4.25;1.58;;;;;;;;;;5007852;28;20135;-87
2023/10/27 06:02:56;;;;;;;4.50;1.45;;;;;;;;;;5013053;28;20605;-86
2023/10/27 06:05:23;;;;;;;4.53;1.60;;;;;;;;;;4989838;28;20042;-84
2023/10/27 06:07:48;;;;;;;4.53;1.58;;;;;;;;;;5006362;28;20826;-86
2023/10/27 06:10:13;;;;;;;4.63;1.70;;;;;;;;;;4989740;28;20102;-86
2023/10/27 06:12:40;;;;;;;4.05;1.52;;;;;;;;;;4991124;28;20042;-89
2023/10/27 06:15:05;;;;;;;5.35;1.77;;;;;;;;;;4996412;28;20258;-88
2023/10/27 06:17:31;;;;;;;5.82;1.90;;;;;;;;;;5014575;28;20098;-89
2023/10/27 06:19:56;;;;;;;4.03;1.30;;;;;;;;;;5013668;28;21696;-87
2023/10/27 06:22:22;;;;;;;3.77;1.50;;;;;;;;;;5019125;28;20381;-88
2023/10/27 06:24:48;;;;;;;3.55;1.65;;;;;;;;;;5027220;28;20437;-90
2023/10/27 06:27:13;;;;;;;6.00;1.90;;;;;;;;;;5022721;28;20050;-87
2023/10/27 06:29:38;;;;;;;6.40;1.95;;;;;;;;;;4997810;28;20067;-88
2023/10/27 06:32:04;;;;;;;4.38;1.75;;;;;;;;;;4978304;28;20038;-86
2023/10/27 06:34:29;;;;;;;3.63;1.60;;;;;;;;;;4991192;28;20037;-86
2023/10/27 06:36:55;;;;;;;5.00;1.55;;;;;;;;;;5008895;28;21539;-85
2023/10/27 06:39:20;;;;;;;6.20;1.92;;;;;;;;;;5007574;28;20037;-86
2023/10/27 06:41:48;;;;;;;4.70;1.80;;;;;;;;;;4992691;28;20499;-86
2023/10/27 06:44:13;;;;;;;5.75;1.88;;;;;;;;;;5008216;28;20288;-86
2023/10/27 06:46:40;;;;;;;4.72;1.75;;;;;;;;;;5014588;28;20054;-86
2023/10/27 06:49:05;;;;;;;4.68;1.73;;;;;;;;;;5014384;28;20069;-86
2023/10/27 06:51:30;;;;;;;8.87;2.00;;;;;;;;;;4997273;28;20032;-87
2023/10/27 06:53:55;;;;;;;4.90;1.77;;;;;;;;;;5003471;28;20311;-85
2023/10/27 06:56:21;;;;;;;5.27;1.97;;;;;;;;;;5009556;28;20276;-85
2023/10/27 06:58:46;;;;;;;5.60;2.10;;;;;;;;;;4995882;28;20400;-83
2023/10/27 07:01:11;;;;;;;5.60;2.03;;;;;;;;;;5012938;28;20300;-85
2023/10/27 07:03:37;;;;;;;3.60;1.77;;;;;;;;;;4995305;28;20368;-85
2023/10/27 07:06:06;;;;;;;5.38;1.77;;;;;;;;;;4998269;28;20089;-85
2023/10/27 07:08:31;;;;;;;5.50;2.30;;;;;;;;;;4995799;28;20045;-84
2023/10/27 07:10:59;;;;;;;6.57;2.22;;;;;;;;;;4990920;28;20021;-87
2023/10/27 07:13:25;;;;;;;5.90;2.25;;;;;;;;;;4994900;28;20033;-86
2023/10/27 07:15:50;;;;;;;6.95;2.42;;;;;;;;;;4992007;28;20078;-84
2023/10/27 07:18:15;;;;;;;6.47;1.92;;;;;;;;;;4997255;28;20121;-86
2023/10/27 07:20:41;;;;;;;7.38;2.25;;;;;;;;;;5010997;28;20037;-87
2023/10/27 07:23:06;;;;;;;7.87;2.20;;;;;;;;;;5009552;28;20029;-87
2023/10/27 07:25:31;;;;;;;5.70;2.10;;;;;;;;;;4978923;28;20332;-87
2023/10/27 07:27:57;;;;;;;5.50;2.30;;;;;;;;;;4998732;28;20288;-87
2023/10/27 07:30:22;;;;;;;6.90;2.05;;;;;;;;;;4996390;28;20017;-87
2023/10/27 07:32:48;;;;;;;6.05;2.15;;;;;;;;;;4993840;28;20841;-87
2023/10/27 07:35:13;;;;;;;5.35;1.98;;;;;;;;;;5004304;28;20026;-90
2023/10/27 07:37:38;;;;;;;9.50;2.40;;;;;;;;;;5023523;28;20022;-87
2023/10/27 07:40:04;;;;;;;6.22;2.40;;;;;;;;;;4999069;28;20327;-87
2023/10/27 07:42:32;;;;;;;5.57;2.25;;;;;;;;;;5013400;28;20030;-88
2023/10/27 07:44:58;;;;;;;7.80;2.55;;;;;;;;;;5000318;28;20048;-92
2023/10/27 07:47:23;;;;;;;6.60;2.83;;;;;;;;;;4990822;28;20042;-91
2023/10/27 07:49:48;;;;;;;6.57;2.30;;;;;;;;;;5004289;28;20070;-94
2023/10/27 07:52:13;;;;;;;7.05;2.13;;;;;;;;;;4998774;28;20037;-90
2023/10/27 07:54:39;;;;;;;5.07;2.20;;;;;;;;;;4983917;28;20042;-89
2023/10/27 07:57:05;;;;;;;9.43;2.53;;;;;;;;;;4993160;28;20289;-89
2023/10/27 07:59:31;;;;;;;8.60;2.35;;;;;;;;;;4986033;28;20329;-89
2023/10/27 08:01:59;;;;;;;9.75;2.55;;;;;;;;;;5001672;28;20064;-91
2023/10/27 08:04:24;;;;;;;9.25;2.30;;;;;;;;;;5002403;28;20116;-88
2023/10/27 08:06:49;;;;;;;8.48;2.20;;;;;;;;;;5020296;28;20034;-89
2023/10/27 08:09:15;;;;;;;6.33;2.67;;;;;;;;;;5020484;28;21219;-89
2023/10/27 08:11:40;;;;;;;6.97;2.38;;;;;;;;;;4979403;28;20301;-88
2023/10/27 08:14:05;;;;;;;6.60;2.42;;;;;;;;;;5004220;28;20064;-87
2023/10/27 08:16:31;;;;;;;7.50;2.50;;;;;;;;;;5000447;28;20064;-87
2023/10/27 08:18:57;;;;;;;6.45;2.33;;;;;;;;;;5014283;28;20060;-91
2023/10/27 08:21:22;;;;;;;7.70;2.47;;;;;;;;;;4988443;28;20030;-89
2023/10/27 08:23:48;;;;;;;6.63;2.17;;;;;;;;;;5012530;28;20052;-90
2023/10/27 08:26:13;;;;;;;7.40;2.78;;;;;;;;;;5010331;28;20296;-88
2023/10/27 08:28:38;;;;;;;11.37;3.20;;;;;;;;;;4973148;28;20066;-90
2023/10/27 08:31:03;;;;;;;8.00;2.95;;;;;;;;;;4973938;28;21161;-88
2023/10/27 08:33:29;;;;;;;10.07;3.27;;;;;;;;;;4990296;28;20085;-89
2023/10/27 08:35:59;;;;;;;6.40;2.45;;;;;;;;;;4992575;28;20433;-89
2023/10/27 08:38:24;;;;;;;;;;;;;;;;;;4991687;28;20030;-89
2023/10/27 08:40:50;;;;;;;8.80;3.25;;;;;;;;;;5007720;28;20409;-89
2023/10/27 08:43:15;;;;;;;9.53;3.23;;;;;;;;;;4980585;28;20036;-90
2023/10/27 08:45:41;;;;;;;8.05;2.95;;;;;;;;;;5022813;28;20281;-88
2023/10/27 08:48:07;;;;;;;11.18;3.10;;;;;;;;;;5018212;28;20054;-88
2023/10/27 08:50:35;;;;;;;13.20;2.97;;;;;;;;;;4983543;28;20036;-87
2023/10/27 08:53:00;;;;;;;7.80;2.80;;;;;;;;;;4999843;28;20128;-87
2023/10/27 08:55:26;;;;;;;9.13;2.80;;;;;;;;;;4985796;28;20037;-87
2023/10/27 08:57:53;;;;;;;9.38;3.42;;;;;;;;;;4990299;28;20333;-89
2023/10/27 09:00:19;;;;;;;9.27;3.22;;;;;;;;;;4994812;28;20053;-89
2023/10/27 09:02:44;;;;;;;11.23;3.50;;;;;;;;;;4997866;28;20119;-90
2023/10/27 09:05:10;;;;;;;8.70;3.20;;;;;;;;;;4988072;28;20038;-89
2023/10/27 09:07:38;;;;;;;10.00;2.80;;;;;;;;;;4983497;28;20061;-89
2023/10/27 09:10:04;;;;;;;12.18;3.47;;;;;;;;;;5011466;28;20026;-87
2023/10/27 09:12:30;;;;;;;9.57;2.97;;;;;;;;;;5000718;28;20034;-88
2023/10/27 09:15:05;;;;;;;9.55;2.97;;;;;;;;;;4997715;28;20317;-88
2023/10/27 09:23:31;;;;;;;4.80;1.92;;;;;;;;;;4967996;28;20422;-59
2023/10/27 09:26:27;;;;;;;7.40;2.10;;;;;;;;;;4984497;28;20006;-61
2023/10/27 09:29:09;;;;;;;7.05;2.00;;;;;;;;;;4961251;28;20038;-60
2023/10/27 09:31:56;;;;;;;5.70;1.98;;;;;;;;;;4985886;28;20097;-61
2023/10/27 09:34:45;;;;;;;6.60;2.38;;;;;;;;;;4972283;28;20048;-61
2023/10/27 09:37:32;;;;;;;5.97;1.90;;;;;;;;;;4987240;28;20423;-61
2023/10/27 09:40:42;;;;;;;7.95;2.00;;;;;;;;;;4981270;28;20407;-64
2023/10/27 09:43:36;;;;;;;6.57;2.42;;;;;;;;;;4953635;28;20055;-60
2023/10/27 09:46:22;;;;;;;4.78;1.88;;;;;;;;;;4972525;28;20031;-60
2023/10/27 09:49:21;;;;;;;6.28;2.05;;;;;;;;;;4963376;28;20037;-57
2023/10/27 09:52:02;;;;;;;5.55;1.90;;;;;;;;;;4970088;28;20042;-58
2023/10/27 09:54:51;;;;;;;3.83;1.50;;;;;;;;;;4981938;28;20360;-59
2023/10/27 09:58:01;;;;;;;6.57;1.90;;;;;;;;;;4972125;28;20116;-59
2023/10/27 10:01:14;;;;;;;7.50;2.13;;;;;;;;;;4985389;28;20097;-59
2023/10/27 10:04:00;;;;;;;3.88;1.80;;;;;;;;;;4970460;28;20077;-60
2023/10/27 10:06:51;;;;;;;4.20;2.05;;;;;;;;;;4970323;28;20072;-60
2023/10/27 10:10:04;;;;;;;3.60;1.80;;;;;;;;;;4986806;28;20027;-59
2023/10/27 10:13:20;;;;;;;4.13;1.85;;;;;;;;;;4933028;28;20531;-59
2023/10/27 10:16:11;;;;;;;6.05;1.90;;;;;;;;;;4952098;28;20104;-59
2023/10/27 10:19:25;;;;;;;4.28;1.63;;;;;;;;;;4989901;28;20562;-60
2023/10/27 10:22:51;;;;;;;5.05;2.00;;;;;;;;;;4931287;28;20051;-58
2023/10/27 10:25:40;;;;;;;4.60;1.60;;;;;;;;;;4917169;29;20526;-59
2023/10/27 10:31:42;;;;;;;4.35;1.77;;;;;;;;;;4978089;28;20072;-58
2023/10/27 10:34:33;;;;;;;4.63;1.80;;;;;;;;;;4979479;28;20041;-58
2023/10/27 10:37:43;;;;;;;3.85;1.67;;;;;;;;;;4974882;28;20572;-57
2023/10/27 10:40:53;;;;;;;4.25;1.58;;;;;;;;;;4972013;28;20014;-58
2023/10/27 10:47:03;;;;;;;3.72;1.55;;;;;;;;;;4917394;28;20038;-57
2023/10/27 10:53:35;;;;;;;4.05;1.40;;;;;;;;;;4987259;28;20124;-58
2023/10/27 10:59:36;;;;;;;5.03;1.30;;;;;;;;;;4896361;28;20064;-58
2023/10/27 11:02:16;;;;;;;4.95;1.40;;;;;;;;;;4920365;29;20060;-59
2023/10/27 11:05:32;;;;;;;3.35;1.27;;;;;;;;;;4959500;28;20074;-59
2023/10/27 11:08:20;;;;;;;3.95;1.50;;;;;;;;;;4976329;28;20578;-57
2023/10/27 11:11:22;;;;;;;4.38;1.33;;;;;;;;;;4968512;28;20053;-59
2023/10/27 11:14:24;;;;;;;2.53;0.95;;;;;;;;;;4958888;28;20033;-60
2023/10/27 11:16:59;;;;;;;;;;;;;;;;;;4990986;28;20125;-60
2023/10/27 11:20:04;;;;;;;2.25;0.80;;;;;;;;;;4970892;28;20313;-59
2023/10/27 11:23:23;;;;;;;2.95;0.90;;;;;;;;;;4959579;28;20074;-59
2023/10/27 11:29:32;;;;;;;4.95;1.13;;;;;;;;;;4941781;28;21578;-58
2023/10/27 11:38:13;;;;;;;3.72;0.80;;;;;;;;;;4976816;28;20084;-58
2023/10/27 11:41:00;;;;;;;3.10;1.20;;;;;;;;;;4983499;28;20046;-59
2023/10/27 11:43:48;;;;;;;4.60;1.60;;;;;;;;;;4968458;28;20022;-59
2023/10/27 11:46:36;;;;;;;2.38;0.80;;;;;;;;;;4971931;28;20537;-59
2023/10/27 11:49:24;;;;;;;3.75;0.82;;;;;;;;;;4964970;28;20026;-60
2023/10/27 11:52:14;;;;;;;3.65;0.63;;;;;;;;;;4972590;28;20022;-60
2023/10/27 11:55:03;;;;;;;4.65;0.90;;;;;;;;;;4980779;28;20740;-60
2023/10/27 11:58:12;;;;;;;4.95;0.82;;;;;;;;;;4964607;28;20136;-58
2023/10/27 12:01:05;;;;;;;2.78;0.65;;;;;;;;;;4982664;28;20042;-59
2023/10/27 12:04:10;;;;;;;2.47;0.82;;;;;;;;;;4959833;28;20026;-59
2023/10/27 12:07:11;;;;;;;2.67;0.70;;;;;;;;;;4982386;28;20497;-59
2023/10/27 12:10:15;;;;;;;2.08;0.90;;;;;;;;;;4965065;28;20042;-59
2023/10/27 12:13:12;;;;;;;3.10;0.80;;;;;;;;;;4948544;28;20410;-58
2023/10/27 12:15:57;;;;;;;;;;;;;;;;;;4983406;28;20038;-58
2023/10/27 12:18:49;;;;;;;3.88;0.85;;;;;;;;;;4966236;28;19922;-58
2023/10/27 12:21:37;;;;;;;2.85;0.98;;;;;;;;;;4979364;28;20034;-60
2023/10/27 12:27:59;;;;;;;2.80;0.82;;;;;;;;;;4913901;29;20523;-60
2023/10/27 12:31:04;;;;;;;3.03;0.80;;;;;;;;;;4911543;29;20132;-60
2023/10/27 12:33:55;;;;;;;3.50;0.80;;;;;;;;;;4977965;28;20117;-58
2023/10/27 12:40:07;;;;;;;4.10;1.20;;;;;;;;;;4984666;28;20033;-59
2023/10/27 12:42:46;;;;;;;4.53;0.95;;;;;;;;;;4979362;28;20058;-59
2023/10/27 12:45:54;;;;;;;3.72;1.00;;;;;;;;;;4987089;28;20042;-59
2023/10/27 13:01:01;;;;;;;2.83;0.95;;;;;;;;;;4988702;28;20036;-60
2023/10/27 13:03:50;;;;;;;1.65;0.70;;;;;;;;;;4986306;28;20060;-58
2023/10/27 13:06:38;;;;;;;2.85;0.68;;;;;;;;;;4984109;28;20522;-59
2023/10/27 13:12:55;;;;;;;5.63;1.08;;;;;;;;;;4983216;28;20133;-59
2023/10/27 13:15:48;;;;;;;;;;;;;;;;;;4986143;28;20019;-58
2023/10/27 13:18:55;;;;;;;3.92;1.02;;;;;;;;;;4969698;28;19926;-58
2023/10/27 13:21:54;;;;;;;2.97;0.68;;;;;;;;;;4979453;28;20061;-59
2023/10/27 13:25:09;;;;;;;2.05;0.80;;;;;;;;;;4985277;28;20022;-59
2023/10/27 13:27:57;;;;;;;3.88;0.80;;;;;;;;;;4976524;28;20030;-58
2023/10/27 13:34:01;;;;;;;2.75;0.70;;;;;;;;;;4985279;28;20128;-59
2023/10/27 13:40:10;;;;;;;3.30;0.70;;;;;;;;;;4977386;28;20416;-58
2023/10/27 13:43:16;;;;;;;3.72;0.80;;;;;;;;;;4987080;28;20125;-59
2023/10/27 13:46:26;;;;;;;3.55;0.75;;;;;;;;;;4921488;28;20434;-59
2023/10/27 13:52:55;;;;;;;5.22;0.70;;;;;;;;;;4982876;28;20112;-59
2023/10/27 14:01:51;;;;;;;4.75;0.90;;;;;;;;;;4959989;28;20050;-58
2023/10/27 14:04:57;;;;;;;3.45;1.13;;;;;;;;;;4944425;28;20026;-59
2023/10/27 14:08:07;;;;;;;2.63;0.75;;;;;;;;;;4949427;28;20046;-58
2023/10/27 14:11:03;;;;;;;5.05;0.88;;;;;;;;;;4979233;28;20512;-60
2023/10/27 14:14:12;;;;;;;3.42;0.80;;;;;;;;;;4971563;28;20687;-57
2023/10/27 14:17:12;;;;;;;2.00;0.75;;;;;;;;;;4965782;28;20096;-59
2023/10/27 14:20:01;;;;;;;3.05;0.60;;;;;;;;;;4962293;28;20097;-58
2023/10/27 14:22:40;;;;;;;3.10;1.00;;;;;;;;;;4984323;28;20034;-58
2023/10/27 14:25:38;;;;;;;5.60;0.80;;;;;;;;;;4981434;28;20080;-60
2023/10/27 14:28:42;;;;;;;3.35;0.70;;;;;;;;;;4972966;28;20406;-60
2023/10/27 14:31:41;;;;;;;5.63;1.15;;;;;;;;;;4968424;28;20049;-60
2023/10/27 14:34:42;;;;;;;3.50;0.80;;;;;;;;;;4970817;28;20644;-59
2023/10/27 14:37:46;;;;;;;3.05;0.65;;;;;;;;;;4979667;28;20042;-58
2023/10/27 14:40:41;;;;;;;3.42;0.80;;;;;;;;;;4980733;28;20070;-59
2023/10/27 14:43:22;;;;;;;3.90;1.00;;;;;;;;;;4937967;28;20189;-58
2023/10/27 14:46:11;;;;;;;;;;;;;;;;;;4972928;28;20048;-59
2023/10/27 14:48:59;;;;;;;5.25;1.30;;;;;;;;;;4966972;28;19910;-59
2023/10/27 14:51:36;;;;;;;5.03;1.10;;;;;;;;;;4963225;28;20073;-58
2023/10/27 14:54:23;;;;;;;2.38;0.77;;;;;;;;;;4982373;28;20045;-57
2023/10/27 14:56:53;;;;;;;4.93;1.10;;;;;;;;;;4982805;28;20117;-59
2023/10/27 14:59:28;;;;;;;;;;;;;;;;;;4949997;28;20430;-58
2023/10/27 15:02:32;;;;;;;2.55;0.70;;;;;;;;;;4963262;28;20048;-58
2023/10/27 15:05:22;;;;;;;3.83;0.80;;;;;;;;;;4973404;28;20550;-58
2023/10/27 15:08:18;;;;;;;2.72;0.70;;;;;;;;;;4975931;28;20112;-58
2023/10/27 15:11:22;;;;;;;3.13;0.85;;;;;;;;;;4979599;28;20033;-58
2023/10/27 15:13:54;;;;;;;2.63;0.70;;;;;;;;;;4963168;28;20038;-58
2023/10/27 15:17:08;;;;;;;3.78;1.10;;;;;;;;;;4982779;28;20042;-58
2023/10/27 15:20:15;;;;;;;2.17;0.68;;;;;;;;;;4982757;28;20039;-58
2023/10/27 15:23:15;;;;;;;3.67;0.80;;;;;;;;;;4965874;28;20130;-57
2023/10/27 15:26:03;;;;;;;2.53;0.70;;;;;;;;;;4946160;28;20065;-58
2023/10/27 15:28:56;;;;;;;3.65;0.80;;;;;;;;;;4967596;28;20101;-58
2023/10/27 15:32:01;;;;;;;3.25;0.63;;;;;;;;;;4980487;28;20035;-58
2023/10/27 15:34:37;;;;;;;3.03;0.65;;;;;;;;;;4970570;28;20082;-58
2023/10/27 15:37:25;;;;;;;3.22;0.90;;;;;;;;;;4967126;28;20037;-58
2023/10/27 15:40:21;;;;;;;3.78;0.93;;;;;;;;;;4955980;28;20031;-57
2023/10/27 15:43:02;;;;;;;3.83;0.90;;;;;;;;;;4974271;28;20055;-59
2023/10/27 15:45:50;;;;;;;6.40;1.00;;;;;;;;;;4985615;28;20165;-58
2023/10/27 15:48:38;;;;;;;5.32;0.90;;;;;;;;;;4969253;28;20509;-59
2023/10/27 15:51:26;;;;;;;2.97;0.98;;;;;;;;;;4979712;28;20026;-57
2023/10/27 15:54:23;;;;;;;3.10;0.60;;;;;;;;;;4953106;28;20031;-58
2023/10/27 15:57:32;;;;;;;2.85;0.80;;;;;;;;;;4971577;28;20030;-58
2023/10/27 16:00:12;;;;;;;3.58;0.90;;;;;;;;;;4984884;28;20026;-58
2023/10/27 16:03:31;;;;;;;5.00;1.08;;;;;;;;;;4972332;28;20046;-58
2023/10/27 16:09:38;;;;;;;4.35;0.98;;;;;;;;;;4985628;28;20147;-58
2023/10/27 16:15:22;;;;;;;2.85;1.00;;;;;;;;;;4969851;28;20120;-59
2023/10/27 16:18:04;;;;;;;3.97;1.38;;;;;;;;;;4985671;28;20392;-59
2023/10/27 16:21:19;;;;;;;4.75;1.23;;;;;;;;;;4979316;28;20042;-59
2023/10/27 16:24:17;;;;;;;6.60;1.55;;;;;;;;;;4985051;28;20110;-59
2023/10/27 16:27:08;;;;;;;5.43;1.60;;;;;;;;;;4981570;28;20045;-59
2023/10/27 16:29:54;;;;;;;6.10;1.77;;;;;;;;;;4960160;28;20038;-59
2023/10/27 16:32:31;;;;;;;6.28;1.50;;;;;;;;;;4981384;28;20040;-59
2023/10/27 16:35:30;;;;;;;4.20;1.65;;;;;;;;;;4982864;28;20030;-58
2023/10/27 16:38:18;;;;;;;7.50;2.15;;;;;;;;;;4985707;28;20120;-59
2023/10/27 16:40:58;;;;;;;3.63;1.60;;;;;;;;;;4990157;28;20049;-59
2023/10/27 16:43:46;;;;;;;4.65;1.50;;;;;;;;;;4983496;28;20406;-59
2023/10/27 16:46:34;;;;;;;4.07;1.23;;;;;;;;;;4982505;28;20035;-56
2023/10/27 16:55:27;;;;;;;4.30;1.30;;;;;;;;;;4980515;28;20038;-58
2023/10/27 17:01:57;;;;;;;9.65;2.42;;;;;;;;;;4974357;28;20097;-58